Time;durP1;ratioP1;P1;durP2;ratioP2;P2;SDS_P1;SDS_P2;PMS_P1;PMS_P2;Temp;Humidity;BMP_temperature;BMP_pressure;BME280_temperature;BME280_humidity;BME280_pressure;Samples;Min_cycle;Max_cycle;Signal;HPM_P1;HPM_P2
2022/07/21 00:01:14;;;;;;;8.10;5.20;;;;;;;22.45;49.86;99344.10;234123;1199;140092;-58
2022/07/21 00:06:17;;;;;;;9.20;4.80;;;;;;;22.40;49.85;99348.24;234129;1199;139178;-58
2022/07/21 00:11:20;;;;;;;9.20;4.90;;;;;;;22.34;49.97;99347.61;234373;1199;138831;-56
2022/07/21 00:16:23;;;;;;;10.00;4.80;;;;;;;22.29;50.14;99345.58;234288;1199;138812;-57
2022/07/21 00:21:27;;;;;;;6.70;4.80;;;;;;;22.24;50.18;99342.02;234206;1199;139157;-57
2022/07/21 00:26:31;;;;;;;7.50;5.50;;;;;;;22.19;50.38;99338.86;234279;1199;139551;-57
2022/07/21 00:31:33;;;;;;;10.00;4.70;;;;;;;22.14;50.46;99340.13;234197;1199;139351;-57
2022/07/21 00:36:37;;;;;;;5.70;4.70;;;;;;;22.07;50.46;99335.05;234324;1199;138999;-60
2022/07/21 00:41:39;;;;;;;6.90;5.40;;;;;;;22.01;50.58;99336.70;234398;1199;139202;-58
2022/07/21 00:46:42;;;;;;;7.50;5.20;;;;;;;21.94;50.69;99337.31;234344;1199;139400;-56
2022/07/21 00:51:47;;;;;;;8.40;4.50;;;;;;;21.88;50.81;99336.13;234243;1199;139388;-57
2022/07/21 00:56:50;;;;;;;7.30;5.00;;;;;;;21.81;51.00;99336.93;234219;1199;140151;-57
2022/07/21 01:01:53;;;;;;;9.50;5.00;;;;;;;21.74;51.18;99338.70;234215;1199;142407;-59
2022/07/21 01:06:57;;;;;;;8.50;5.00;;;;;;;21.68;51.24;99345.30;234089;1199;139039;-59
2022/07/21 01:12:01;;;;;;;7.40;5.00;;;;;;;21.61;51.29;99348.52;234172;1198;139824;-59
2022/07/21 01:17:04;;;;;;;10.10;5.10;;;;;;;21.55;51.53;99347.04;234109;1199;139026;-58
2022/07/21 01:22:07;;;;;;;7.20;5.30;;;;;;;21.50;51.61;99350.77;234338;1199;139468;-56
2022/07/21 01:27:10;;;;;;;7.10;4.90;;;;;;;21.45;51.66;99352.00;234208;1199;139116;-58
2022/07/21 01:32:14;;;;;;;7.50;5.00;;;;;;;21.38;51.81;99348.52;234046;1199;139663;-60
2022/07/21 01:37:28;;;;;;;7.40;5.10;;;;;;;21.33;51.94;99347.42;234221;1199;139626;-61
2022/07/21 01:42:31;;;;;;;7.20;5.00;;;;;;;21.29;51.97;99348.90;234246;1199;139232;-60
2022/07/21 01:47:34;;;;;;;6.40;4.80;;;;;;;21.24;52.14;99357.14;234179;1199;139039;-61
2022/07/21 01:52:38;;;;;;;6.20;4.50;;;;;;;21.18;52.28;99354.70;233949;1199;139213;-61
2022/07/21 01:57:41;;;;;;;7.20;4.60;;;;;;;21.14;52.33;99368.33;234170;1199;139013;-59
2022/07/21 02:02:44;;;;;;;8.90;4.60;;;;;;;21.09;52.37;99365.16;234201;1199;139900;-60
2022/07/21 02:07:47;;;;;;;7.00;4.50;;;;;;;21.05;52.46;99360.92;234227;1199;139030;-61
2022/07/21 02:12:50;;;;;;;8.50;4.90;;;;;;;20.99;52.49;99359.11;234219;1199;138858;-61
2022/07/21 02:17:52;;;;;;;8.70;4.60;;;;;;;20.95;52.61;99360.63;234238;1199;138820;-56
2022/07/21 02:22:56;;;;;;;6.20;4.30;;;;;;;20.91;52.80;99359.77;234304;1199;139850;-58
2022/07/21 02:27:59;;;;;;;8.20;4.60;;;;;;;20.87;52.77;99354.05;234430;1199;139287;-56
2022/07/21 02:33:02;;;;;;;5.80;4.30;;;;;;;20.82;52.87;99349.33;234154;1199;151439;-57
2022/07/21 02:38:06;;;;;;;7.40;4.80;;;;;;;20.79;53.09;99349.64;234204;1199;139236;-58
2022/07/21 02:43:09;;;;;;;7.40;4.70;;;;;;;20.74;53.18;99346.81;234034;1199;139132;-59
2022/07/21 02:48:12;;;;;;;8.00;5.10;;;;;;;20.72;53.23;99341.30;234157;1199;140213;-58
2022/07/21 02:53:19;;;;;;;9.80;5.10;;;;;;;20.69;53.37;99338.16;234179;1199;139778;-57
2022/07/21 02:58:24;;;;;;;9.30;5.10;;;;;;;20.66;53.46;99342.66;234132;1198;138813;-59
2022/07/21 03:03:30;;;;;;;8.60;4.90;;;;;;;20.65;53.51;99340.41;234150;1199;139005;-61
2022/07/21 03:08:34;;;;;;;12.80;5.40;;;;;;;20.63;53.52;99335.56;234192;1199;139044;-60
2022/07/21 03:13:37;;;;;;;41.50;32.90;;;;;;;20.64;53.80;99336.19;234202;1199;139610;-58
2022/07/21 03:18:41;;;;;;;6.20;4.40;;;;;;;20.70;53.76;99333.21;234218;1199;140724;-58
2022/07/21 03:23:45;;;;;;;144.90;115.40;;;;;;;20.77;53.83;99338.83;234042;1200;139575;-58
2022/07/21 03:28:49;;;;;;;10.60;6.50;;;;;;;20.81;53.95;99339.14;234234;1199;141152;-59
2022/07/21 03:33:52;;;;;;;9.90;5.00;;;;;;;20.83;53.85;99335.15;234149;1199;139507;-58
2022/07/21 03:38:55;;;;;;;270.30;227.30;;;;;;;20.81;53.78;99336.13;234243;1199;140849;-61
2022/07/21 03:43:58;;;;;;;19.10;13.60;;;;;;;20.81;54.00;99343.48;234228;1199;139618;-62
2022/07/21 03:49:01;;;;;;;10.50;5.20;;;;;;;20.87;54.12;99340.71;234171;1199;139380;-62
2022/07/21 03:54:05;;;;;;;14.60;9.20;;;;;;;20.93;54.14;99340.25;234264;1199;139402;-61
2022/07/21 03:59:08;;;;;;;12.20;8.30;;;;;;;21.16;54.74;99341.37;234202;1199;138946;-59
2022/07/21 04:04:11;;;;;;;8.00;6.20;;;;;;;21.52;54.65;99339.91;234304;1199;139034;-59
2022/07/21 04:09:14;;;;;;;11.90;8.40;;;;;;;21.67;53.88;99341.01;234252;1199;139737;-59
2022/07/21 04:14:18;;;;;;;11.60;4.90;;;;;;;21.64;53.27;99343.75;234172;1199;139281;-59
2022/07/21 04:19:21;;;;;;;8.60;4.90;;;;;;;21.56;53.12;99332.66;234173;1199;139438;-62
2022/07/21 04:24:25;;;;;;;8.20;5.00;;;;;;;21.51;53.20;99338.95;234208;1199;139350;-60
2022/07/21 04:29:28;;;;;;;7.20;5.20;;;;;;;21.48;53.30;99344.11;234288;1199;139958;-60
2022/07/21 04:34:31;;;;;;;9.40;5.60;;;;;;;21.50;53.33;99342.88;234304;1199;138949;-61
2022/07/21 04:39:34;;;;;;;10.60;6.50;;;;;;;21.55;53.51;99336.38;234232;1199;139590;-60
2022/07/21 04:44:37;;;;;;;10.20;6.70;;;;;;;21.65;53.60;99343.63;234164;1198;139602;-58
2022/07/21 04:49:40;;;;;;;10.70;5.80;;;;;;;21.77;53.62;99344.14;234178;1199;139000;-59
2022/07/21 04:54:43;;;;;;;9.70;5.70;;;;;;;21.87;53.82;99345.48;234050;1199;139584;-59
2022/07/21 04:59:47;;;;;;;13.90;6.90;;;;;;;21.98;53.83;99345.98;234237;1199;140560;-61
2022/07/21 05:04:49;;;;;;;12.90;6.80;;;;;;;22.12;53.72;99346.16;234332;1199;139944;-61
2022/07/21 05:09:52;;;;;;;9.60;6.20;;;;;;;22.23;53.60;99351.84;234254;1199;140633;-60
2022/07/21 05:14:55;;;;;;;9.30;6.90;;;;;;;22.35;53.59;99359.31;234198;1199;209931;-61
2022/07/21 05:19:59;;;;;;;13.70;6.20;;;;;;;22.47;53.59;99362.51;234167;1199;138909;-61
2022/07/21 05:25:05;;;;;;;11.00;6.40;;;;;;;22.57;53.64;99364.33;234093;1199;139758;-60
2022/07/21 05:30:10;;;;;;;19.70;7.10;;;;;;;22.68;53.50;99356.25;234191;1199;141315;-61
2022/07/21 05:35:14;;;;;;;15.40;6.60;;;;;;;22.79;53.52;99351.80;234151;1199;139833;-61
2022/07/21 05:40:17;;;;;;;8.70;6.90;;;;;;;22.89;53.48;99352.52;234395;1199;140160;-62
2022/07/21 05:45:20;;;;;;;12.50;7.00;;;;;;;22.99;53.34;99358.93;234163;1199;139304;-61
2022/07/21 05:50:23;;;;;;;15.00;7.20;;;;;;;23.09;53.25;99363.43;234220;1199;140111;-57
2022/07/21 05:55:26;;;;;;;12.90;6.30;;;;;;;23.19;53.15;99369.02;233690;1199;139076;-59
2022/07/21 06:00:30;;;;;;;14.60;7.10;;;;;;;23.30;53.03;99367.42;234274;1199;140015;-59
2022/07/21 06:05:32;;;;;;;10.80;6.50;;;;;;;23.42;53.00;99367.05;234153;1199;139764;-61
2022/07/21 06:10:37;;;;;;;8.70;6.80;;;;;;;23.51;52.90;99363.36;234329;1199;139091;-60
2022/07/21 06:15:40;;;;;;;11.00;6.90;;;;;;;23.58;52.73;99366.51;234187;1199;138895;-60
2022/07/21 06:20:42;;;;;;;9.90;7.10;;;;;;;23.63;52.66;99367.44;234257;1199;139894;-60
2022/07/21 06:25:46;;;;;;;13.90;7.30;;;;;;;23.72;52.66;99367.15;234222;1199;139622;-61
2022/07/21 06:30:49;;;;;;;12.30;7.20;;;;;;;23.81;52.47;99367.98;234256;1199;139643;-60
2022/07/21 06:35:53;;;;;;;11.20;6.50;;;;;;;23.90;52.31;99363.09;234196;1199;140079;-60
2022/07/21 06:40:55;;;;;;;8.50;6.60;;;;;;;24.01;52.33;99363.56;234320;1199;140070;-60
2022/07/21 06:45:58;;;;;;;10.80;6.60;;;;;;;24.12;52.11;99367.04;234242;1199;139550;-61
2022/07/21 06:51:02;;;;;;;11.20;6.20;;;;;;;24.20;51.92;99370.45;234142;1199;139390;-61
2022/07/21 06:56:05;;;;;;;9.50;6.30;;;;;;;24.26;51.81;99373.77;234181;1199;139401;-61
2022/07/21 07:01:08;;;;;;;9.00;6.30;;;;;;;24.31;51.60;99373.74;234239;1199;140682;-58
2022/07/21 07:06:12;;;;;;;8.20;6.20;;;;;;;24.37;51.59;99371.83;234219;1199;139477;-61
2022/07/21 07:11:15;;;;;;;10.80;6.60;;;;;;;24.46;51.38;99380.40;234109;1199;140933;-61
2022/07/21 07:16:18;;;;;;;9.70;5.80;;;;;;;24.56;51.27;99381.07;234174;1199;138845;-61
2022/07/21 07:21:21;;;;;;;10.40;6.10;;;;;;;24.65;51.17;99376.64;234191;1199;139839;-60
2022/07/21 07:26:24;;;;;;;11.00;6.60;;;;;;;24.72;51.15;99370.64;234168;1199;140185;-60
2022/07/21 07:31:27;;;;;;;10.00;6.50;;;;;;;24.80;50.98;99369.20;234331;1198;140057;-60
2022/07/21 07:36:31;;;;;;;8.20;6.50;;;;;;;24.89;50.92;99368.03;234166;1199;140392;-60
2022/07/21 07:41:34;;;;;;;11.80;7.50;;;;;;;24.97;50.84;99367.58;234314;1199;141527;-59
2022/07/21 07:46:37;;;;;;;7.30;6.30;;;;;;;25.09;50.86;99370.93;234184;1199;139243;-61
2022/07/21 07:51:40;;;;;;;11.10;6.70;;;;;;;25.21;50.67;99377.73;234274;1198;139585;-56
2022/07/21 07:56:43;;;;;;;10.60;6.40;;;;;;;25.31;50.53;99387.23;234110;1199;138864;-58
2022/07/21 08:01:46;;;;;;;42.20;30.40;;;;;;;25.42;50.34;99392.63;234128;1199;139758;-58
2022/07/21 08:06:49;;;;;;;14.40;8.30;;;;;;;25.56;50.28;99390.80;234113;1199;139777;-58
2022/07/21 08:11:52;;;;;;;12.20;6.80;;;;;;;25.71;50.14;99397.08;234213;1199;139745;-58
2022/07/21 08:16:55;;;;;;;10.30;6.60;;;;;;;25.85;50.26;99404.05;234224;1199;139250;-57
2022/07/21 08:21:58;;;;;;;8.10;6.10;;;;;;;25.96;49.93;99401.85;234125;1199;139203;-58
2022/07/21 08:27:16;;;;;;;10.20;6.20;;;;;;;26.05;49.64;99400.02;234149;1199;139668;-58
2022/07/21 08:32:19;;;;;;;11.70;6.60;;;;;;;26.14;49.59;99394.67;234124;1198;139068;-58
2022/07/21 08:37:22;;;;;;;9.20;5.40;;;;;;;26.27;49.47;99391.91;234068;1199;139576;-59
2022/07/21 08:42:26;;;;;;;11.90;5.90;;;;;;;26.40;49.25;99386.81;234022;1199;139482;-58
2022/07/21 08:47:30;;;;;;;10.90;5.80;;;;;;;26.53;49.27;99382.35;233943;1199;139171;-59
2022/07/21 08:52:34;;;;;;;10.40;5.60;;;;;;;26.62;49.01;99380.17;234240;1199;139939;-58
2022/07/21 08:57:41;;;;;;;9.50;5.30;;;;;;;26.71;48.74;99379.56;234215;1198;139680;-58
2022/07/21 09:02:44;;;;;;;11.80;5.70;;;;;;;26.81;48.58;99370.99;234195;1199;139628;-58
2022/07/21 09:07:54;;;;;;;11.40;5.20;;;;;;;26.93;48.29;99368.48;234038;1199;139235;-57
2022/07/21 09:13:01;;;;;;;6.70;5.00;;;;;;;27.07;48.17;99366.54;234166;1199;139882;-58
2022/07/21 09:18:16;;;;;;;12.60;8.20;;;;;;;27.25;47.97;99361.30;234147;1199;139047;-58
2022/07/21 09:23:23;;;;;;;17.50;7.10;;;;;;;27.46;47.52;99361.61;234030;1199;139556;-58
2022/07/21 09:28:28;;;;;;;6.80;4.90;;;;;;;27.69;47.26;99357.20;234261;1199;141053;-59
2022/07/21 09:33:35;;;;;;;14.00;5.70;;;;;;;27.88;46.86;99352.20;234178;1198;139718;-59
2022/07/21 09:38:41;;;;;;;10.00;5.00;;;;;;;28.04;46.38;99349.08;234108;1199;139484;-60
2022/07/21 09:43:47;;;;;;;7.40;4.70;;;;;;;28.23;46.16;99348.21;234132;1199;139320;-58
2022/07/21 09:48:54;;;;;;;10.00;4.60;;;;;;;28.41;45.73;99343.02;234110;1199;139353;-57
2022/07/21 09:54:17;;;;;;;9.60;4.90;;;;;;;28.62;45.40;99341.95;234091;1199;139292;-59
2022/07/21 09:59:21;;;;;;;9.00;4.90;;;;;;;28.83;45.23;99340.27;234089;1199;138934;-59
2022/07/21 10:04:54;;;;;;;7.80;4.90;;;;;;;28.98;44.86;99338.77;234299;1199;139496;-59
2022/07/21 10:10:10;;;;;;;6.90;4.10;;;;;;;29.18;44.68;99340.88;234225;1199;139299;-59
2022/07/21 10:15:13;;;;;;;8.40;4.70;;;;;;;29.34;44.05;99337.50;234127;1199;139373;-57
2022/07/21 10:20:24;;;;;;;16.40;4.40;;;;;;;29.51;43.83;99337.80;234125;1199;140791;-58
2022/07/21 10:25:27;;;;;;;10.50;6.20;;;;;;;29.73;43.15;99337.38;234060;1199;144877;-55
2022/07/21 10:30:57;;;;;;;35.70;30.60;;;;;;;29.87;43.10;99334.95;234049;1199;139549;-56
2022/07/21 10:36:00;;;;;;;8.90;4.60;;;;;;;29.85;42.48;99337.65;234200;1199;253351;-55
2022/07/21 10:41:05;;;;;;;8.10;3.60;;;;;;;29.76;42.33;99336.73;234194;1199;140260;-55
2022/07/21 10:46:32;;;;;;;10.70;3.70;;;;;;;29.72;42.24;99332.17;234276;1199;151491;-55
2022/07/21 10:51:38;;;;;;;5.40;4.20;;;;;;;29.75;41.98;99330.28;234108;1199;139886;-56
2022/07/21 10:56:41;;;;;;;10.10;4.00;;;;;;;29.79;41.86;99322.80;234140;1199;139859;-56
2022/07/21 11:01:44;;;;;;;6.30;3.40;;;;;;;29.83;41.68;99322.41;234114;1199;139896;-56
2022/07/21 11:06:47;;;;;;;8.80;4.00;;;;;;;29.89;41.75;99319.33;234112;1199;139505;-57
2022/07/21 11:12:03;;;;;;;5.80;3.80;;;;;;;29.99;41.71;99316.89;234099;1199;139760;-57
2022/07/21 11:17:08;;;;;;;6.90;3.30;;;;;;;30.08;41.42;99311.01;234254;1199;139294;-55
2022/07/21 11:22:25;;;;;;;101.10;85.30;;;;;;;30.17;41.08;99305.92;234248;1199;141551;-58
2022/07/21 11:27:30;;;;;;;7.30;6.30;;;;;;;30.31;40.79;99310.34;234079;1199;141532;-57
2022/07/21 11:32:33;;;;;;;6.40;3.90;;;;;;;30.42;40.58;99307.98;234172;1199;139875;-57
2022/07/21 11:37:44;;;;;;;7.70;3.70;;;;;;;30.54;40.39;99308.65;234132;1199;139166;-58
2022/07/21 11:42:52;;;;;;;10.50;4.30;;;;;;;30.70;40.22;99297.38;234075;1199;139083;-58
2022/07/21 11:47:55;;;;;;;6.60;3.80;;;;;;;30.86;40.11;99296.00;234031;1199;140014;-57
2022/07/21 11:52:58;;;;;;;7.30;3.40;;;;;;;30.99;39.90;99294.35;234280;1199;139438;-58
2022/07/21 11:58:13;;;;;;;4.80;3.50;;;;;;;31.11;39.68;99289.55;234253;1199;141205;-59
2022/07/21 12:03:16;;;;;;;10.70;3.70;;;;;;;31.20;39.59;99290.02;234119;1199;141904;-60
2022/07/21 12:08:20;;;;;;;5.60;3.60;;;;;;;31.26;39.27;99291.46;234166;1199;140613;-59
2022/07/21 12:13:23;;;;;;;7.80;3.50;;;;;;;31.38;39.26;99286.11;234143;1199;140569;-60
2022/07/21 12:18:26;;;;;;;4.90;3.40;;;;;;;31.50;38.89;99282.53;234125;1199;139085;-62
2022/07/21 12:23:30;;;;;;;8.40;3.60;;;;;;;31.57;38.58;99277.77;234153;1199;139770;-61
2022/07/21 12:28:48;;;;;;;60.60;51.10;;;;;;;31.63;38.43;99277.17;234202;1199;139456;-61
2022/07/21 12:33:53;;;;;;;6.50;4.40;;;;;;;31.72;38.17;99268.05;234110;1199;139986;-61
2022/07/21 12:44:44;;;;;;;7.30;3.20;;;;;;;31.93;37.45;99266.60;234122;1199;140719;-61
2022/07/21 12:50:07;;;;;;;5.30;3.00;;;;;;;32.02;37.28;99258.88;234197;1199;140220;-61
2022/07/21 12:55:15;;;;;;;4.60;2.60;;;;;;;32.16;36.65;99257.48;234225;1199;141296;-61
2022/07/21 13:00:18;;;;;;;9.50;2.80;;;;;;;32.27;36.12;99255.88;234056;1199;139308;-57
2022/07/21 13:05:22;;;;;;;7.20;2.90;;;;;;;32.39;35.74;99251.17;234208;1199;139662;-59
2022/07/21 13:10:26;;;;;;;5.80;2.60;;;;;;;32.58;35.71;99249.58;234304;1199;139184;-59
2022/07/21 13:15:29;;;;;;;5.00;2.60;;;;;;;32.69;34.91;99248.55;234198;1199;138988;-58
2022/07/21 13:20:32;;;;;;;3.30;2.60;;;;;;;32.77;34.58;99247.14;234326;1199;140786;-59
2022/07/21 13:25:35;;;;;;;7.00;2.90;;;;;;;32.87;34.58;99241.52;234130;1199;139399;-59
2022/07/21 13:30:39;;;;;;;7.20;2.70;;;;;;;32.97;34.29;99236.04;234195;1199;139728;-61
2022/07/21 13:35:44;;;;;;;8.00;2.50;;;;;;;33.01;34.19;99229.19;234201;1199;139116;-60
2022/07/21 13:40:47;;;;;;;6.50;2.60;;;;;;;33.08;34.07;99224.84;234308;1199;140284;-59
2022/07/21 13:46:13;;;;;;;8.10;2.60;;;;;;;33.16;33.52;99215.78;234300;1199;139492;-60
2022/07/21 13:51:18;;;;;;;7.50;2.30;;;;;;;33.25;33.02;99213.28;234163;1199;139125;-59
2022/07/21 13:56:21;;;;;;;3.80;2.30;;;;;;;33.34;32.55;99215.11;234183;1199;139218;-60
2022/07/21 14:01:25;;;;;;;10.10;2.70;;;;;;;33.42;32.48;99208.68;234143;1199;139527;-59
2022/07/21 14:06:30;;;;;;;10.50;3.50;;;;;;;33.55;32.38;99210.98;234157;1199;139912;-58
2022/07/21 14:11:35;;;;;;;5.70;3.00;;;;;;;33.76;32.00;99203.14;234159;1199;142121;-60
2022/07/21 14:16:38;;;;;;;5.30;2.60;;;;;;;33.96;31.96;99200.08;234303;1199;141398;-60
2022/07/21 14:21:41;;;;;;;4.40;2.50;;;;;;;34.04;31.84;99197.27;234249;1199;139271;-59
2022/07/21 14:26:44;;;;;;;3.50;2.60;;;;;;;34.12;31.72;99192.56;234257;1199;138704;-59
2022/07/21 14:31:49;;;;;;;6.60;2.70;;;;;;;34.17;31.42;99187.70;234114;1199;141283;-60
2022/07/21 14:36:52;;;;;;;;;;;;;;;34.18;31.00;99188.75;234194;1199;138978;-60
2022/07/21 14:41:55;;;;;;;7.20;2.40;;;;;;;34.12;31.06;99191.06;234224;1199;126421;-59
2022/07/21 14:46:58;;;;;;;7.80;2.50;;;;;;;34.02;31.07;99190.63;234317;1199;139064;-59
2022/07/21 14:52:01;;;;;;;6.60;2.30;;;;;;;33.86;30.79;99185.23;234209;1199;138924;-60
2022/07/21 14:57:04;;;;;;;5.90;2.50;;;;;;;33.65;30.86;99181.15;234127;1199;140174;-59
2022/07/21 15:02:12;;;;;;;8.30;2.40;;;;;;;33.42;30.68;99176.25;234195;1199;139251;-60
2022/07/21 15:07:23;;;;;;;10.40;2.60;;;;;;;33.20;30.84;99169.41;234198;1199;142764;-60
2022/07/21 15:12:26;;;;;;;5.50;2.40;;;;;;;33.00;31.11;99164.34;234363;1198;139293;-59
2022/07/21 15:17:29;;;;;;;6.80;2.60;;;;;;;32.80;30.93;99159.40;234165;1199;139733;-59
2022/07/21 15:22:32;;;;;;;5.90;2.30;;;;;;;32.60;31.20;99156.24;234382;1199;140408;-59
2022/07/21 15:27:40;;;;;;;7.60;2.20;;;;;;;32.41;31.37;99152.36;234187;1199;139059;-60
2022/07/21 15:32:44;;;;;;;12.20;2.50;;;;;;;32.27;31.45;99144.55;234210;1199;139559;-59
2022/07/21 15:37:47;;;;;;;6.80;2.50;;;;;;;32.13;31.52;99133.47;234256;1199;140333;-59
2022/07/21 15:42:50;;;;;;;7.40;2.30;;;;;;;32.02;31.52;99127.81;234320;1199;140607;-59
2022/07/21 15:47:53;;;;;;;3.40;2.30;;;;;;;31.85;31.66;99131.82;234231;1199;139245;-59
2022/07/21 15:52:57;;;;;;;5.40;2.40;;;;;;;31.66;31.87;99132.25;234278;1199;139210;-59
2022/07/21 15:58:00;;;;;;;12.50;5.70;;;;;;;31.51;31.87;99132.55;234102;1199;139797;-59
2022/07/21 16:03:04;;;;;;;209.80;184.00;;;;;;;31.34;32.02;99127.80;234129;1199;140026;-60
2022/07/21 16:08:07;;;;;;;27.70;19.30;;;;;;;31.29;32.29;99125.35;234184;1199;141533;-60
2022/07/21 16:13:11;;;;;;;5.80;3.40;;;;;;;31.31;32.40;99125.98;234045;1199;139911;-60
2022/07/21 16:18:14;;;;;;;6.60;3.30;;;;;;;31.35;32.49;99125.95;234103;1199;140056;-60
2022/07/21 16:23:17;;;;;;;4.00;2.70;;;;;;;31.25;32.37;99125.52;234218;1199;139425;-60
2022/07/21 16:28:20;;;;;;;6.20;2.30;;;;;;;31.13;32.29;99128.21;234198;1199;139717;-59
2022/07/21 16:33:22;;;;;;;6.70;2.50;;;;;;;31.05;32.45;99122.75;234133;1199;139552;-59
2022/07/21 16:38:25;;;;;;;75.70;54.20;;;;;;;30.96;32.59;99126.06;234060;1199;140147;-60
2022/07/21 16:43:28;;;;;;;15.70;11.90;;;;;;;30.85;32.86;99125.44;234157;1198;140009;-60
2022/07/21 16:48:32;;;;;;;7.40;4.00;;;;;;;30.77;33.07;99118.81;234012;1199;140414;-55
2022/07/21 16:53:36;;;;;;;6.30;2.40;;;;;;;30.71;32.93;99117.70;234206;1199;139218;-55
2022/07/21 16:58:39;;;;;;;5.90;2.30;;;;;;;30.63;33.13;99114.84;234212;1199;139401;-55
2022/07/21 17:03:42;;;;;;;6.80;3.90;;;;;;;30.57;33.07;99108.54;234084;1199;139508;-56
2022/07/21 17:08:45;;;;;;;6.00;4.30;;;;;;;30.52;33.04;99105.13;234088;1199;139094;-56
2022/07/21 17:13:48;;;;;;;8.30;2.90;;;;;;;30.45;33.16;99102.80;234192;1199;140213;-56
2022/07/21 17:18:52;;;;;;;11.90;10.10;;;;;;;30.39;33.50;99103.15;234064;1199;139481;-55
2022/07/21 17:23:55;;;;;;;9.60;4.70;;;;;;;30.34;33.51;99097.00;234076;1199;139673;-55
2022/07/21 17:28:59;;;;;;;6.60;3.30;;;;;;;30.27;33.55;99092.24;234260;1199;140611;-54
2022/07/21 17:34:02;;;;;;;6.20;2.70;;;;;;;30.17;33.57;99088.35;234055;1199;139563;-56
2022/07/21 17:39:05;;;;;;;7.70;3.70;;;;;;;30.07;33.89;99086.50;234181;1199;139896;-54
2022/07/21 17:44:08;;;;;;;10.70;3.90;;;;;;;29.98;33.79;99086.97;234148;1198;139847;-56
2022/07/21 17:49:11;;;;;;;159.40;142.60;;;;;;;29.91;34.03;99085.77;234148;1199;140233;-57
2022/07/21 17:54:15;;;;;;;288.00;257.40;;;;;;;29.84;33.96;99082.33;234158;1199;140557;-57
2022/07/21 17:59:18;;;;;;;55.90;46.00;;;;;;;29.77;34.41;99078.17;234171;1198;141283;-55
2022/07/21 18:04:25;;;;;;;31.00;24.10;;;;;;;29.69;34.55;99077.45;234346;1199;140047;-55
2022/07/21 18:09:35;;;;;;;21.30;11.60;;;;;;;29.59;34.75;99076.13;234066;1199;139686;-55
2022/07/21 18:14:38;;;;;;;165.80;136.50;;;;;;;29.48;35.10;99072.02;233974;1199;140375;-55
2022/07/21 18:19:41;;;;;;;84.00;64.10;;;;;;;29.39;35.39;99075.59;234075;1199;140304;-60
2022/07/21 18:24:44;;;;;;;42.30;32.90;;;;;;;29.28;35.50;99080.98;234240;1199;140272;-59
2022/07/21 18:29:47;;;;;;;24.10;16.90;;;;;;;29.12;35.66;99082.21;234107;1199;139642;-59
2022/07/21 18:34:50;;;;;;;13.70;11.60;;;;;;;28.97;35.85;99081.53;234222;1199;139533;-58
2022/07/21 18:39:53;;;;;;;9.70;5.20;;;;;;;28.82;36.05;99085.17;234115;1199;139633;-58
2022/07/21 18:44:59;;;;;;;16.80;6.40;;;;;;;28.69;36.42;99077.09;234208;1199;140010;-58
2022/07/21 18:50:07;;;;;;;15.40;10.30;;;;;;;28.59;36.89;99074.89;234097;1199;139762;-58
2022/07/21 18:55:11;;;;;;;14.80;8.50;;;;;;;28.47;37.17;99077.20;234190;1199;140736;-59
2022/07/21 19:00:15;;;;;;;12.20;5.60;;;;;;;28.38;37.25;99078.11;234164;1199;139654;-58
2022/07/21 19:05:18;;;;;;;8.50;3.40;;;;;;;28.29;37.41;99082.77;234153;1199;140167;-58
2022/07/21 19:10:23;;;;;;;13.90;5.10;;;;;;;28.20;37.65;99085.48;234298;1199;139285;-59
2022/07/21 19:15:27;;;;;;;11.30;4.90;;;;;;;28.08;37.93;99086.04;234205;1199;139430;-57
2022/07/21 19:20:30;;;;;;;9.70;4.90;;;;;;;27.96;37.96;99085.80;234125;1199;139608;-57
2022/07/21 19:25:34;;;;;;;14.10;4.00;;;;;;;27.86;38.14;99083.51;234241;1199;139419;-58
2022/07/21 19:30:37;;;;;;;298.70;258.60;;;;;;;27.78;38.11;99079.77;234148;1199;141030;-57
2022/07/21 19:35:40;;;;;;;72.20;59.00;;;;;;;27.73;38.13;99077.83;234137;1199;139785;-59
2022/07/21 19:40:43;;;;;;;53.50;38.70;;;;;;;27.67;38.08;99071.89;234262;1198;139837;-59
2022/07/21 19:45:51;;;;;;;11.30;5.60;;;;;;;27.61;38.05;99071.05;234136;1199;138833;-59
2022/07/21 19:50:54;;;;;;;15.50;3.40;;;;;;;27.53;38.19;99069.46;234091;1199;139798;-58
2022/07/21 19:55:57;;;;;;;13.40;3.10;;;;;;;27.42;38.18;99071.60;234292;1199;139252;-57
2022/07/21 20:01:00;;;;;;;10.90;3.40;;;;;;;27.28;38.24;99064.52;234257;1199;139511;-57
2022/07/21 20:06:03;;;;;;;9.30;3.50;;;;;;;27.14;38.40;99063.25;234173;1199;139373;-61
2022/07/21 20:11:08;;;;;;;9.80;3.40;;;;;;;27.02;38.57;99062.94;234372;1199;139507;-60
2022/07/21 20:16:11;;;;;;;15.00;3.50;;;;;;;26.92;38.55;99066.83;234429;1199;139512;-60
2022/07/21 20:21:15;;;;;;;7.50;3.00;;;;;;;26.82;38.66;99069.65;234162;1199;139814;-59
2022/07/21 20:26:18;;;;;;;6.40;3.40;;;;;;;26.72;38.53;99072.57;234146;1199;139569;-58
2022/07/21 20:31:27;;;;;;;13.20;3.50;;;;;;;26.62;38.54;99075.84;234183;1199;138779;-59
2022/07/21 20:36:30;;;;;;;13.00;3.40;;;;;;;26.53;38.47;99077.45;234029;1199;139494;-60
2022/07/21 20:41:34;;;;;;;9.70;3.40;;;;;;;26.44;38.67;99076.64;234130;1199;139473;-58
2022/07/21 20:46:37;;;;;;;10.00;3.30;;;;;;;26.34;38.65;99080.15;234294;1199;139578;-59
2022/07/21 20:51:43;;;;;;;13.00;3.90;;;;;;;26.24;38.64;99081.98;234124;1199;139040;-58
2022/07/21 20:56:46;;;;;;;9.30;3.40;;;;;;;26.17;38.90;99083.72;234216;1199;139762;-58
2022/07/21 21:02:09;;;;;;;8.20;3.90;;;;;;;26.10;39.20;99082.02;234155;1199;139117;-60
2022/07/21 21:07:12;;;;;;;10.40;3.50;;;;;;;26.05;39.27;99085.47;234175;1199;140698;-59
2022/07/21 21:12:15;;;;;;;15.30;3.80;;;;;;;25.98;39.43;99084.70;234183;1198;139458;-60
2022/07/21 21:17:18;;;;;;;7.00;3.60;;;;;;;25.92;39.57;99088.02;234210;1199;140342;-61
2022/07/21 21:22:22;;;;;;;8.20;3.80;;;;;;;25.84;39.76;99089.53;234299;1199;139992;-59
2022/07/21 21:27:30;;;;;;;10.70;3.70;;;;;;;25.75;40.03;99089.77;234275;1199;139093;-59
2022/07/21 21:32:37;;;;;;;8.90;3.80;;;;;;;25.63;40.16;99089.59;234171;1199;138983;-61
2022/07/21 21:37:40;;;;;;;10.00;3.60;;;;;;;25.52;40.40;99085.64;234113;1199;139664;-61
2022/07/21 21:42:44;;;;;;;7.40;3.70;;;;;;;25.41;40.71;99086.11;233988;1199;138943;-59
2022/07/21 21:47:47;;;;;;;8.10;3.40;;;;;;;25.30;40.87;99087.06;234140;1198;140628;-60
2022/07/21 21:52:50;;;;;;;9.70;3.90;;;;;;;25.20;41.20;99084.90;234221;1199;139582;-59
2022/07/21 21:57:53;;;;;;;9.70;4.00;;;;;;;25.09;41.56;99090.77;234186;1199;139016;-59
2022/07/21 22:02:56;;;;;;;10.00;3.90;;;;;;;24.97;41.76;99087.44;234171;1199;139743;-60
2022/07/21 22:07:59;;;;;;;15.00;4.50;;;;;;;24.87;42.10;99088.02;233858;1199;139580;-59
2022/07/21 22:13:05;;;;;;;13.30;4.80;;;;;;;24.76;42.53;99087.81;234115;1199;141427;-57
2022/07/21 22:18:08;;;;;;;10.70;5.40;;;;;;;24.64;42.82;99083.02;234104;1199;141320;-60
2022/07/21 22:23:11;;;;;;;17.20;6.40;;;;;;;24.51;43.13;99081.98;234174;1199;140076;-59
2022/07/21 22:28:14;;;;;;;14.40;5.40;;;;;;;24.39;43.32;99075.25;234277;1199;139250;-59
2022/07/21 22:33:17;;;;;;;9.40;4.70;;;;;;;24.31;43.49;99075.44;234006;1199;139465;-60
2022/07/21 22:38:20;;;;;;;7.70;4.20;;;;;;;24.24;43.55;99070.63;234069;1199;139902;-60
2022/07/21 22:43:23;;;;;;;11.80;4.50;;;;;;;24.16;43.61;99073.21;234122;1199;140218;-59
2022/07/21 22:48:26;;;;;;;8.90;4.70;;;;;;;24.08;43.74;99073.23;234090;1199;140933;-60
2022/07/21 22:53:29;;;;;;;6.30;3.70;;;;;;;24.01;43.89;99075.33;234045;1199;140508;-59
2022/07/21 22:58:32;;;;;;;4.60;3.40;;;;;;;23.95;43.94;99073.16;234253;1199;140163;-60
2022/07/21 23:03:35;;;;;;;9.70;3.80;;;;;;;23.91;44.05;99075.83;234146;1198;139197;-59
2022/07/21 23:08:38;;;;;;;10.40;4.00;;;;;;;23.87;44.15;99077.55;234072;1199;139804;-60
2022/07/21 23:13:41;;;;;;;5.60;3.30;;;;;;;23.83;44.35;99077.81;234021;1199;140579;-59